createdAt,value
2019-01-04T00:00:58.445Z,8.57
2019-01-04T00:06:02.396Z,8.10
2019-01-04T00:11:06.426Z,10.13
2019-01-04T00:16:10.400Z,8.60
2019-01-04T00:21:14.416Z,8.63
2019-01-04T00:26:18.507Z,7.97
2019-01-04T00:31:22.541Z,8.90
2019-01-04T00:36:26.617Z,8.70
2019-01-04T00:41:30.643Z,9.40
2019-01-04T00:46:34.679Z,7.93
2019-01-04T00:51:38.725Z,8.07
2019-01-04T00:57:22.049Z,7.73
2019-01-04T01:02:52.658Z,7.50
2019-01-04T01:08:44.291Z,8.53
2019-01-04T01:14:45.867Z,8.63
2019-01-04T01:20:33.743Z,8.10
2019-01-04T01:26:18.192Z,7.90
2019-01-04T01:31:59.092Z,8.30
2019-01-04T01:37:38.768Z,7.23
2019-01-04T01:43:36.488Z,8.67
2019-01-04T01:49:17.391Z,8.23
2019-01-04T01:54:21.384Z,7.87
2019-01-04T01:59:25.373Z,8.67
2019-01-04T02:04:29.312Z,10.90
2019-01-04T02:09:33.427Z,8.50
2019-01-04T02:14:37.480Z,8.13
2019-01-04T02:19:41.531Z,8.80
2019-01-04T02:24:45.634Z,9.20
2019-01-04T02:29:49.735Z,9.03
2019-01-04T02:34:53.812Z,9.03
2019-01-04T02:39:57.916Z,9.60
2019-01-04T02:45:01.815Z,10.07
2019-01-04T02:50:06.388Z,8.80
2019-01-04T02:55:10.461Z,10.43
2019-01-04T03:00:14.533Z,9.90
2019-01-04T03:05:18.576Z,11.17
2019-01-04T03:10:22.636Z,10.13
2019-01-04T03:15:26.699Z,10.23
2019-01-04T03:20:30.764Z,10.70
2019-01-04T03:25:34.679Z,10.80
2019-01-04T03:30:38.657Z,10.60
2019-01-04T03:35:42.642Z,10.43
2019-01-04T03:40:46.848Z,10.03
2019-01-04T03:45:50.902Z,10.70
2019-01-04T03:50:55.071Z,10.13
2019-01-04T03:55:59.124Z,11.57
2019-01-04T04:01:03.202Z,10.83
2019-01-04T04:06:07.392Z,10.07
2019-01-04T04:11:11.459Z,10.70
2019-01-04T04:16:15.539Z,11.53
2019-01-04T04:21:19.684Z,11.97
2019-01-04T04:26:23.735Z,11.20
2019-01-04T04:31:27.735Z,12.20
2019-01-04T04:36:31.716Z,12.90
2019-01-04T04:41:35.744Z,14.30
2019-01-04T04:46:39.848Z,14.53
2019-01-04T04:51:44.019Z,15.37
2019-01-04T04:56:49.332Z,17.70
2019-01-04T05:01:53.415Z,16.80
2019-01-04T05:06:57.460Z,17.03
2019-01-04T05:12:01.447Z,17.27
2019-01-04T05:17:05.493Z,17.70
2019-01-04T05:22:09.484Z,17.90
2019-01-04T05:27:13.463Z,19.30
2019-01-04T05:32:17.524Z,17.87
2019-01-04T05:37:21.680Z,17.67
2019-01-04T05:42:25.707Z,20.27
2019-01-04T05:47:29.627Z,19.30
2019-01-04T05:52:33.676Z,19.93
2019-01-04T05:57:37.732Z,20.60
2019-01-04T06:02:41.815Z,19.23
2019-01-04T06:07:45.808Z,19.77
2019-01-04T06:12:49.963Z,20.50
2019-01-04T06:17:53.959Z,19.60
2019-01-04T06:22:58.126Z,19.10
2019-01-04T06:28:02.137Z,18.80
2019-01-04T06:33:06.187Z,17.43
2019-01-04T06:38:10.179Z,19.10
2019-01-04T06:43:14.246Z,19.63
2019-01-04T06:48:18.286Z,19.53
2019-01-04T06:53:22.199Z,20.37
2019-01-04T06:58:26.235Z,19.23
2019-01-04T07:03:30.333Z,19.10
2019-01-04T07:08:34.290Z,18.50
2019-01-04T07:13:38.363Z,20.00
2019-01-04T07:18:42.475Z,20.73
2019-01-04T07:23:46.380Z,18.33
2019-01-04T07:28:50.440Z,20.63
2019-01-04T07:33:54.543Z,22.60
2019-01-04T07:38:58.600Z,20.33
2019-01-04T07:44:02.599Z,20.20
2019-01-04T07:49:06.649Z,20.33
2019-01-04T07:54:10.708Z,20.03
2019-01-04T07:59:14.813Z,18.77
2019-01-04T08:04:18.831Z,18.33
2019-01-04T08:09:22.909Z,19.93
2019-01-04T08:14:26.980Z,18.33
2019-01-04T08:19:31.027Z,18.17
2019-01-04T08:24:35.107Z,17.93
2019-01-04T08:29:39.740Z,17.37
2019-01-04T08:34:43.776Z,17.93
2019-01-04T08:39:47.751Z,17.13
2019-01-04T08:44:51.832Z,17.60
2019-01-04T08:49:55.803Z,16.90
2019-01-04T08:54:59.891Z,15.23
2019-01-04T09:00:04.785Z,15.90
2019-01-04T09:05:08.922Z,16.13
2019-01-04T09:10:13.007Z,13.60
2019-01-04T09:15:17.044Z,14.20
2019-01-04T09:20:21.058Z,13.47
2019-01-04T09:25:25.163Z,14.40
2019-01-04T09:30:29.212Z,13.00
2019-01-04T09:35:33.283Z,11.07
2019-01-04T09:40:37.300Z,12.77
2019-01-04T09:45:41.339Z,11.50
2019-01-04T09:50:45.311Z,9.80
2019-01-04T09:55:49.380Z,11.37
2019-01-04T10:00:53.446Z,10.03
2019-01-04T10:05:57.520Z,8.83
2019-01-04T10:11:01.606Z,9.20
2019-01-04T10:16:05.715Z,7.47
2019-01-04T10:21:09.684Z,7.67
2019-01-04T10:26:13.755Z,7.60
2019-01-04T10:31:17.895Z,7.83
2019-01-04T10:36:22.087Z,6.60
2019-01-04T10:41:26.114Z,6.73
2019-01-04T10:46:31.068Z,7.20
2019-01-04T10:51:35.067Z,6.23
2019-01-04T10:56:39.010Z,5.10
2019-01-04T11:01:43.055Z,6.10
2019-01-04T11:06:47.156Z,5.97
2019-01-04T11:11:51.292Z,6.30
2019-01-04T11:16:55.362Z,6.20
2019-01-04T11:22:35.387Z,5.57
2019-01-04T11:27:51.747Z,5.03
2019-01-04T11:33:09.591Z,6.10
2019-01-04T11:38:50.382Z,4.30
2019-01-04T11:44:56.950Z,4.63
2019-01-04T11:50:34.772Z,4.90
2019-01-04T11:55:38.900Z,4.50
2019-01-04T12:00:42.960Z,5.23
2019-01-04T12:05:47.373Z,5.50
2019-01-04T12:10:51.428Z,4.93
2019-01-04T12:15:55.559Z,5.20
2019-01-04T12:20:59.744Z,4.37
2019-01-04T12:26:03.853Z,3.53
2019-01-04T12:31:08.025Z,3.97
2019-01-04T12:36:12.110Z,4.03
2019-01-04T12:41:16.472Z,3.90
2019-01-04T12:46:20.567Z,3.60
2019-01-04T12:51:25.023Z,3.20
2019-01-04T12:56:29.256Z,3.33
2019-01-04T13:01:33.552Z,4.67
2019-01-04T13:06:37.979Z,4.37
2019-01-04T13:11:42.057Z,4.77
2019-01-04T13:16:46.244Z,4.70
2019-01-04T13:21:51.183Z,4.77
2019-01-04T13:26:55.363Z,4.43
2019-01-04T13:31:59.358Z,4.93
2019-01-04T13:37:03.550Z,4.60
2019-01-04T13:42:07.743Z,4.80
2019-01-04T13:47:11.835Z,4.10
2019-01-04T13:52:15.871Z,4.97
2019-01-04T13:57:20.910Z,5.30
2019-01-04T14:02:24.985Z,4.37
2019-01-04T14:07:29.025Z,4.53
2019-01-04T14:12:33.086Z,5.33
2019-01-04T14:17:37.187Z,6.30
2019-01-04T14:22:41.258Z,6.43
2019-01-04T14:27:45.304Z,6.93
2019-01-04T14:32:49.385Z,6.73
2019-01-04T14:37:53.556Z,6.00
2019-01-04T14:42:57.621Z,6.20
2019-01-04T14:48:01.799Z,6.40
2019-01-04T14:53:06.924Z,5.30
2019-01-04T14:58:11.218Z,6.03
2019-01-04T15:03:15.427Z,6.03
2019-01-04T15:08:19.347Z,6.30
2019-01-04T15:13:23.415Z,6.90
2019-01-04T15:18:27.443Z,6.47
2019-01-04T15:23:31.384Z,6.77
2019-01-04T15:28:35.528Z,6.27
2019-01-04T15:33:39.526Z,7.27
2019-01-04T15:38:43.502Z,7.40
2019-01-04T15:43:47.543Z,8.57
2019-01-04T15:48:51.605Z,8.17
2019-01-04T15:53:55.660Z,8.07
2019-01-04T15:58:59.738Z,8.57
2019-01-04T16:04:03.773Z,7.40
2019-01-04T16:09:08.528Z,8.10
2019-01-04T16:14:12.588Z,8.50
2019-01-04T16:19:16.643Z,9.33
2019-01-04T16:24:20.668Z,9.67
2019-01-04T16:29:24.705Z,9.20
2019-01-04T16:34:28.758Z,9.27
2019-01-04T16:39:32.835Z,10.10
2019-01-04T16:44:36.811Z,9.27
2019-01-04T16:49:40.939Z,9.13
2019-01-04T16:54:44.982Z,9.63
2019-01-04T16:59:48.910Z,10.37
2019-01-04T17:04:52.989Z,11.53
2019-01-04T17:09:57.001Z,12.40
2019-01-04T17:15:01.132Z,11.70
2019-01-04T17:20:05.983Z,11.30
2019-01-04T17:25:10.231Z,12.73
2019-01-04T17:30:14.566Z,11.90
2019-01-04T17:35:18.486Z,12.40
2019-01-04T17:40:22.376Z,13.60
2019-01-04T17:45:26.487Z,12.40
2019-01-04T17:50:30.499Z,12.30
2019-01-04T17:55:34.567Z,11.03
2019-01-04T18:00:38.628Z,11.07
2019-01-04T18:05:42.716Z,12.17
2019-01-04T18:10:46.692Z,11.50
2019-01-04T18:15:50.741Z,12.50
2019-01-04T18:20:54.732Z,11.10
2019-01-04T18:25:58.782Z,10.43
2019-01-04T18:31:02.848Z,12.60
2019-01-04T18:36:07.053Z,15.17
2019-01-04T18:41:11.097Z,11.97
2019-01-04T18:46:15.067Z,13.80
2019-01-04T18:51:19.043Z,14.63
2019-01-04T18:56:23.006Z,13.47
2019-01-04T19:01:27.085Z,12.70
2019-01-04T19:06:31.323Z,15.63
2019-01-04T19:11:35.421Z,14.97
2019-01-04T19:16:39.483Z,13.10
2019-01-04T19:21:43.439Z,13.60
2019-01-04T19:26:47.584Z,13.10
2019-01-04T19:31:51.679Z,14.10
2019-01-04T19:36:55.732Z,13.20
2019-01-04T19:41:59.787Z,14.37
2019-01-04T19:47:03.842Z,15.17
2019-01-04T19:52:07.894Z,13.90
2019-01-04T19:57:11.942Z,13.00
2019-01-04T20:02:15.995Z,12.83
2019-01-04T20:08:07.616Z,12.60
2019-01-04T20:14:06.479Z,13.47
2019-01-04T20:19:29.191Z,13.07
2019-01-04T20:25:10.776Z,14.30
2019-01-04T20:30:46.227Z,14.07
2019-01-04T20:36:12.365Z,11.80
2019-01-04T20:41:48.139Z,15.33
2019-01-04T20:47:12.299Z,14.90
2019-01-04T20:52:44.551Z,14.53
2019-01-04T20:58:04.495Z,13.67
2019-01-04T21:03:20.203Z,13.93
2019-01-04T21:08:46.428Z,14.83
2019-01-04T21:14:27.762Z,15.50
2019-01-04T21:20:09.075Z,15.20
2019-01-04T21:25:40.999Z,15.47
2019-01-04T21:31:04.096Z,16.83
2019-01-04T21:36:26.188Z,19.17
2019-01-04T21:41:48.313Z,18.20
2019-01-04T21:47:10.052Z,20.30
2019-01-04T21:52:39.215Z,20.07
2019-01-04T21:58:01.138Z,21.00
2019-01-04T22:03:23.340Z,21.23
2019-01-04T22:08:52.171Z,20.27
2019-01-04T22:14:14.178Z,20.73
2019-01-04T22:19:49.892Z,21.30
2019-01-04T22:25:11.819Z,21.07
2019-01-04T22:30:37.996Z,21.27
2019-01-04T22:35:53.690Z,21.27
2019-01-04T22:41:16.968Z,21.40
2019-01-04T22:46:40.096Z,20.93
2019-01-04T22:52:21.740Z,20.50
2019-01-04T22:57:36.319Z,19.00
2019-01-04T23:02:58.119Z,22.00
2019-01-04T23:08:20.241Z,21.37
2019-01-04T23:13:42.434Z,21.77
2019-01-04T23:19:04.546Z,22.03
2019-01-04T23:24:43.005Z,23.40
2019-01-04T23:30:15.248Z,24.20
2019-01-04T23:35:42.094Z,25.40
2019-01-04T23:41:04.875Z,26.27
2019-01-04T23:46:28.466Z,24.77
2019-01-04T23:51:50.316Z,25.27
2019-01-04T23:57:12.447Z,23.00
